地図

経路データ

SID SEASON NUMBER BASIN SUBBASIN NAME ISO_TIME NATURE LAT LON WMO_WIND WMO_PRES WMO_AGENCY TRACK_TYPE DIST2LAND LANDFALL IFLAG USA_AGENCY USA_ATCF_ID USA_LAT USA_LON USA_RECORD USA_STATUS USA_WIND USA_PRES USA_SSHS USA_R34_NE USA_R34_SE USA_R34_SW USA_R34_NW USA_R50_NE USA_R50_SE USA_R50_SW USA_R50_NW USA_R64_NE USA_R64_SE USA_R64_SW USA_R64_NW USA_POCI USA_ROCI USA_RMW USA_EYE TOKYO_LAT TOKYO_LON TOKYO_GRADE TOKYO_WIND TOKYO_PRES TOKYO_R50_DIR TOKYO_R50_LONG TOKYO_R50_SHORT TOKYO_R30_DIR TOKYO_R30_LONG TOKYO_R30_SHORT TOKYO_LAND CMA_LAT CMA_LON CMA_CAT CMA_WIND CMA_PRES HKO_LAT HKO_LON HKO_CAT HKO_WIND HKO_PRES NEWDELHI_LAT NEWDELHI_LON NEWDELHI_GRADE NEWDELHI_WIND NEWDELHI_PRES NEWDELHI_CI NEWDELHI_DP NEWDELHI_POCI REUNION_LAT REUNION_LON REUNION_TYPE REUNION_WIND REUNION_PRES REUNION_TNUM REUNION_CI REUNION_RMW REUNION_R34_NE REUNION_R34_SE REUNION_R34_SW REUNION_R34_NW REUNION_R50_NE REUNION_R50_SE REUNION_R50_SW REUNION_R50_NW REUNION_R64_NE REUNION_R64_SE REUNION_R64_SW REUNION_R64_NW BOM_LAT BOM_LON BOM_TYPE BOM_WIND BOM_PRES BOM_TNUM BOM_CI BOM_RMW BOM_R34_NE BOM_R34_SE BOM_R34_SW BOM_R34_NW BOM_R50_NE BOM_R50_SE BOM_R50_SW BOM_R50_NW BOM_R64_NE BOM_R64_SE BOM_R64_SW BOM_R64_NW BOM_ROCI BOM_POCI BOM_EYE BOM_POS_METHOD BOM_PRES_METHOD NADI_LAT NADI_LON NADI_CAT NADI_WIND NADI_PRES WELLINGTON_LAT WELLINGTON_LON WELLINGTON_WIND WELLINGTON_PRES DS824_LAT DS824_LON DS824_STAGE DS824_WIND DS824_PRES TD9636_LAT TD9636_LON TD9636_STAGE TD9636_WIND TD9636_PRES TD9635_LAT TD9635_LON TD9635_WIND TD9635_PRES TD9635_ROCI NEUMANN_LAT NEUMANN_LON NEUMANN_CLASS NEUMANN_WIND NEUMANN_PRES MLC_LAT MLC_LON MLC_CLASS MLC_WIND MLC_PRES USA_GUST BOM_GUST BOM_GUST_PER REUNION_GUST REUNION_GUST_PER USA_SEAHGT USA_SEARAD_NE USA_SEARAD_SE USA_SEARAD_SW USA_SEARAD_NW STORM_SPEED STORM_DIR
1952295N11282 1952 83 NA CS FOX 1952-10-20 12:00:00 TS 11.4000 -77.7000 25 hurdat_atl main 244 244 O_____________ hurdat_atl AL101952 11.4000 -77.7000 TD 25 -1 14 324
1952295N11282 1952 83 NA CS FOX 1952-10-20 15:00:00 TS 11.9501 -78.1022 main 300 296 P_____________ AL101952 11.9501 -78.1022 TD 27 -1 14 325
1952295N11282 1952 83 NA CS FOX 1952-10-20 18:00:00 TS 12.5000 -78.5000 30 hurdat_atl main 342 342 O_____________ hurdat_atl AL101952 12.5000 -78.5000 TD 30 -1 14 325
1952295N11282 1952 83 NA CS FOX 1952-10-20 21:00:00 TS 13.0499 -78.8927 main 392 392 P_____________ AL101952 13.0499 -78.8927 TD 30 -1 14 325
1952295N11282 1952 83 NA CS FOX 1952-10-21 00:00:00 TS 13.6000 -79.3000 30 hurdat_atl main 428 378 O_____________ hurdat_atl AL101952 13.6000 -79.3000 TD 30 -1 14 323
1952295N11282 1952 83 NA CS FOX 1952-10-21 03:00:00 TS 14.1575 -79.7426 main 376 313 P_____________ AL101952 14.1575 -79.7426 TD 30 -1 14 322
1952295N11282 1952 83 NA CS FOX 1952-10-21 06:00:00 TS 14.7000 -80.2000 30 hurdat_atl main 313 268 O_____________ hurdat_atl AL101952 14.7000 -80.2000 TD 30 -1 14 320
1952295N11282 1952 83 NA CS FOX 1952-10-21 09:00:00 TS 15.2150 -80.6651 main 258 224 P_____________ AL101952 15.2150 -80.6651 TD 32 -1 13 319
1952295N11282 1952 83 NA CS FOX 1952-10-21 12:00:00 TS 15.7000 -81.1000 35 hurdat_atl main 228 211 O_____________ hurdat_atl AL101952 15.7000 -81.1000 TS 35 0 13 321
1952295N11282 1952 83 NA CS FOX 1952-10-21 15:00:00 TS 16.1950 -81.5024 main 217 216 P_____________ AL101952 16.1950 -81.5024 TS 40 0 11 323
1952295N11282 1952 83 NA CS FOX 1952-10-21 18:00:00 TS 16.6000 -81.8000 45 1003 hurdat_atl main 224 224 O_____________ hurdat_atl AL101952 16.6000 -81.8000 TS 45 1003 0 8 327
1952295N11282 1952 83 NA CS FOX 1952-10-21 21:00:00 TS 16.8599 -81.9527 main 233 233 P_____________ AL101952 16.8599 -81.9527 TS 47 0 4 335
1952295N11282 1952 83 NA CS FOX 1952-10-22 00:00:00 TS 17.0000 -82.0000 50 hurdat_atl main 242 242 O_____________ hurdat_atl AL101952 17.0000 -82.0000 TS 50 0 2 345
1952295N11282 1952 83 NA CS FOX 1952-10-22 03:00:00 TS 17.0725 -82.0150 main 250 250 P_____________ AL101952 17.0725 -82.0150 TS 52 0 1 0
1952295N11282 1952 83 NA CS FOX 1952-10-22 06:00:00 TS 17.1000 -82.0000 55 hurdat_atl main 250 250 O_____________ hurdat_atl AL101952 17.1000 -82.0000 TS 55 0 1 12
1952295N11282 1952 83 NA CS FOX 1952-10-22 09:00:00 TS 17.1500 -82.0000 main 259 250 P_____________ AL101952 17.1500 -82.0000 TS 55 0 1 0
1952295N11282 1952 83 NA CS FOX 1952-10-22 12:00:00 TS 17.2000 -82.0000 55 hurdat_atl main 259 259 O_____________ hurdat_atl AL101952 17.2000 -82.0000 TS 55 0 1 16
1952295N11282 1952 83 NA CS FOX 1952-10-22 15:00:00 TS 17.2350 -82.0000 main 259 259 P_____________ AL101952 17.2350 -82.0000 TS 57 0 1 0
1952295N11282 1952 83 NA CS FOX 1952-10-22 18:00:00 TS 17.3000 -82.0000 60 993 hurdat_atl main 269 269 O_____________ hurdat_atl AL101952 17.3000 -82.0000 TS 60 993 0 2 8
1952295N11282 1952 83 NA CS FOX 1952-10-22 21:00:00 TS 17.4350 -82.0000 main 278 278 P_____________ AL101952 17.4350 -82.0000 TS 67 1 3 0
1952295N11282 1952 83 NA CS FOX 1952-10-23 00:00:00 TS 17.6000 -82.0000 75 hurdat_atl main 297 297 O_____________ hurdat_atl AL101952 17.6000 -82.0000 HU 75 1 3 0
1952295N11282 1952 83 NA CS FOX 1952-10-23 03:00:00 TS 17.7425 -82.0000 main 307 307 P_____________ AL101952 17.7425 -82.0000 HU 85 2 3 0
1952295N11282 1952 83 NA CS FOX 1952-10-23 06:00:00 TS 17.9000 -82.0000 95 hurdat_atl main 327 327 O_____________ hurdat_atl AL101952 17.9000 -82.0000 HU 95 2 3 2
1952295N11282 1952 83 NA CS FOX 1952-10-23 09:00:00 TS 18.0850 -82.0000 main 347 347 P_____________ AL101952 18.0850 -82.0000 HU 102 3 4 0
1952295N11282 1952 83 NA CS FOX 1952-10-23 12:00:00 TS 18.3000 -82.0000 110 942 hurdat_atl main 356 334 O_____________ hurdat_atl AL101952 18.3000 -82.0000 HU 110 942 3 5 0
1952295N11282 1952 83 NA CS FOX 1952-10-23 15:00:00 TS 18.5350 -82.0075 main 334 302 P_____________ AL101952 18.5350 -82.0075 HU 112 3 5 2
1952295N11282 1952 83 NA CS FOX 1952-10-23 18:00:00 TS 18.8000 -82.0000 115 hurdat_atl main 302 270 O_____________ hurdat_atl AL101952 18.8000 -82.0000 HU 115 4 6 5
1952295N11282 1952 83 NA CS FOX 1952-10-23 21:00:00 TS 19.0925 -81.9724 main 270 242 P_____________ AL101952 19.0925 -81.9724 HU 115 4 6 9
1952295N11282 1952 83 NA CS FOX 1952-10-24 00:00:00 TS 19.4000 -81.9000 115 hurdat_atl main 242 216 O_____________ hurdat_atl AL101952 19.4000 -81.9000 HU 115 4 6 19
1952295N11282 1952 83 NA CS FOX 1952-10-24 03:00:00 TS 19.6700 -81.7649 main 216 200 P_____________ AL101952 19.6700 -81.7649 HU 117 4 7 25
1952295N11282 1952 83 NA CS FOX 1952-10-24 06:00:00 TS 20.0000 -81.6000 120 hurdat_atl main 200 169 O_____________ hurdat_atl AL101952 20.0000 -81.6000 HU 120 4 9 20
1952295N11282 1952 83 NA CS FOX 1952-10-24 09:00:00 TS 20.4700 -81.4574 main 160 112 P_____________ AL101952 20.4700 -81.4574 HU 120 4 10 16
1952295N11282 1952 83 NA CS FOX 1952-10-24 12:00:00 TS 21.0000 -81.3000 120 940 hurdat_atl main 112 56 O_____________ hurdat_atl AL101952 21.0000 -81.3000 HU 120 940 4 11 17
1952295N11282 1952 83 NA CS FOX 1952-10-24 15:00:00 TS 21.5150 -81.1075 main 56 11 P_____________ AL101952 21.5150 -81.1075 HU 122 937 4 11 20
1952295N11282 1952 83 NA CS FOX 1952-10-24 18:00:00 TS 22.0000 -80.9000 125 934 hurdat_atl main 11 0 O_____________ hurdat_atl AL101952 22.0000 -80.9000 L HU 125 934 4 10 22
1952295N11282 1952 83 NA NA FOX 1952-10-24 21:00:00 TS 22.4299 -80.7148 main 0 0 P_____________ AL101952 22.4299 -80.7148 HU 105 3 9 25
1952295N11282 1952 83 NA NA FOX 1952-10-25 00:00:00 TS 22.8000 -80.5000 85 hurdat_atl main 0 0 O_____________ hurdat_atl AL101952 22.8000 -80.5000 HU 85 2 8 34
1952295N11282 1952 83 NA NA FOX 1952-10-25 03:00:00 TS 23.1225 -80.2149 main 22 22 P_____________ AL101952 23.1225 -80.2149 HU 77 1 8 43
1952295N11282 1952 83 NA NA FOX 1952-10-25 06:00:00 TS 23.4000 -79.9000 70 hurdat_atl main 56 56 O_____________ hurdat_atl AL101952 23.4000 -79.9000 HU 70 1 8 46
1952295N11282 1952 83 NA NA FOX 1952-10-25 09:00:00 TS 23.6573 -79.6222 main 98 98 P_____________ AL101952 23.6573 -79.6222 HU 67 1 7 48
1952295N11282 1952 83 NA NA FOX 1952-10-25 12:00:00 TS 23.9000 -79.3000 65 hurdat_atl main 112 60 O_____________ hurdat_atl AL101952 23.9000 -79.3000 HU 65 1 9 52
1952295N11282 1952 83 NA NA FOX 1952-10-25 15:00:00 TS 24.2177 -78.8279 main 54 15 P_____________ AL101952 24.2177 -78.8279 HU 62 0 10 59
1952295N11282 1952 83 NA NA FOX 1952-10-25 18:00:00 TS 24.4000 -78.4000 60 991 hurdat_atl main 15 10 O_____________ hurdat_atl AL101952 24.4000 -78.4000 TS 60 991 0 8 69
1952295N11282 1952 83 NA NA FOX 1952-10-25 19:00:00 TS 24.4000 -78.3000 60 991 hurdat_atl main 10 0 O_____________ hurdat_atl AL101952 24.4000 -78.3000 L TS 60 991 0 7 76
1952295N11282 1952 83 NA NA FOX 1952-10-25 21:00:00 TS 24.4872 -78.0205 main 0 0 P_____________ AL101952 24.4872 -78.0205 TS 62 0 9 68
1952295N11282 1952 83 NA NA FOX 1952-10-26 00:00:00 TS 24.7000 -77.5000 65 hurdat_atl main 30 30 O_____________ hurdat_atl AL101952 24.7000 -77.5000 HU 65 1 10 71
1952295N11282 1952 83 NA NA FOX 1952-10-26 03:00:00 TS 24.7926 -77.0185 main 78 78 P_____________ AL101952 24.7926 -77.0185 HU 70 1 8 83
1952295N11282 1952 83 NA NA FOX 1952-10-26 06:00:00 TS 24.8000 -76.6000 75 hurdat_atl main 116 116 O_____________ hurdat_atl AL101952 24.8000 -76.6000 HU 75 1 6 95
1952295N11282 1952 83 NA NA FOX 1952-10-26 09:00:00 TS 24.7394 -76.3148 main 143 143 P_____________ AL101952 24.7394 -76.3148 HU 75 1 6 105
1952295N11282 1952 83 NA NA FOX 1952-10-26 10:00:00 TS 24.7000 -76.2000 75 hurdat_atl main 153 153 O_____________ hurdat_atl AL101952 24.7000 -76.2000 L HU 75 1 8 110
1952295N11282 1952 83 NA NA FOX 1952-10-26 12:00:00 TS 24.6000 -75.9000 75 hurdat_atl main 182 182 O_____________ hurdat_atl AL101952 24.6000 -75.9000 HU 75 1 7 110
1952295N11282 1952 83 NA NA FOX 1952-10-26 15:00:00 TS 24.5000 -75.6000 75 hurdat_atl main 212 212 O_____________ hurdat_atl AL101952 24.5000 -75.6000 L HU 75 1 7 107
1952295N11282 1952 83 NA NA FOX 1952-10-26 18:00:00 TS 24.4000 -75.2000 70 hurdat_atl main 253 253 O_____________ hurdat_atl AL101952 24.4000 -75.2000 HU 70 1 7 104
1952295N11282 1952 83 NA NA FOX 1952-10-26 21:00:00 TS 24.3182 -74.8056 main 294 294 P_____________ AL101952 24.3182 -74.8056 HU 62 0 6 90
1952295N11282 1952 83 NA NA FOX 1952-10-27 00:00:00 TS 24.4000 -74.5000 55 994 hurdat_atl main 323 323 O_____________ hurdat_atl AL101952 24.4000 -74.5000 TS 55 994 0 6 42
1952295N11282 1952 83 NA NA FOX 1952-10-27 03:00:00 TS 24.7674 -74.3550 main 334 334 P_____________ AL101952 24.7674 -74.3550 TS 52 0 9 11
1952295N11282 1952 83 NA NA FOX 1952-10-27 06:00:00 TS 25.3000 -74.3000 50 hurdat_atl main 354 354 O_____________ hurdat_atl AL101952 25.3000 -74.3000 TS 50 0 11 4
1952295N11282 1952 83 NA NA FOX 1952-10-27 09:00:00 TS 25.8274 -74.2645 main 371 371 P_____________ AL101952 25.8274 -74.2645 TS 47 0 11 5
1952295N11282 1952 83 NA NA FOX 1952-10-27 12:00:00 TS 26.4000 -74.2000 45 hurdat_atl main 406 406 O_____________ hurdat_atl AL101952 26.4000 -74.2000 TS 45 0 12 9
1952295N11282 1952 83 NA NA FOX 1952-10-27 15:00:00 TS 26.9922 -74.0669 main 443 443 P_____________ AL101952 26.9922 -74.0669 TS 42 0 13 17
1952295N11282 1952 83 NA NA FOX 1952-10-27 18:00:00 ET 27.6000 -73.8000 40 hurdat_atl main 502 502 O_____________ hurdat_atl AL101952 27.6000 -73.8000 EX 40 -4 14 28
1952295N11282 1952 83 NA NA FOX 1952-10-27 21:00:00 ET 28.2001 -73.3525 main 573 573 P_____________ AL101952 28.2001 -73.3525 EX 37 -4 15 36
1952295N11282 1952 83 NA NA FOX 1952-10-28 00:00:00 ET 28.8000 -72.8000 35 hurdat_atl main 660 660 O_____________ hurdat_atl AL101952 28.8000 -72.8000 EX 35 -4 15 39
1952295N11282 1952 83 NA NA FOX 1952-10-28 03:00:00 ET 29.3847 -72.2714 main 710 690 P_____________ AL101952 29.3847 -72.2714 EX 32 -4 15 39
1952295N11282 1952 83 NA NA FOX 1952-10-28 06:00:00 ET 30.0000 -71.7000 30 hurdat_atl main 690 673 O_____________ hurdat_atl AL101952 30.0000 -71.7000 EX 30 -4 17 39
1952295N11282 1952 83 NA NA FOX 1952-10-28 09:00:00 ET 30.6808 -71.0699 main 673 671 P_____________ AL101952 30.6808 -71.0699 EX 27 -4 18 39
1952295N11282 1952 83 NA NA FOX 1952-10-28 12:00:00 ET 31.4000 -70.4000 25 hurdat_atl main 672 O_____________ hurdat_atl AL101952 31.4000 -70.4000 EX 25 -4 18 38

IBTrACS Databaseについて

本データベースは、米国NOAAが公開する1842年以降の世界の熱帯低気圧のベストトラックデータアーカイブInternational Best Track Archive for Climate Stewardship (IBTrACS)を、ウェブで閲覧しやすい形式に変換したものです。

最終更新日:2021-11-26